Latest Weather Observations for Sydney Airport

IDN60901

Issued at 6:41 pm EDT Thursday 17 October 2019 (issued every 10 minutes, with the page automatically refreshed every 10 minutes)

About weather observations | Map of Sydney area stations | Latest observations for Sydney area | Other Formats
Station Details ID: 066037 Name: SYDNEY AIRPORT AMO Lat: -33.95 Lon: 151.17 Height: 6.0 m
Data from the previous 72 hours. | See also: Recent months at Sydney Airport
Date/Time
EDT
Temp
°C
App
Temp
°C
Dew
Point
°C
Rel
Hum
%
Delta-T
°C
Wind Press
QNH
hPa
Press
MSL
hPa
Rain since
9am
mm
Dir  Spd
km/h
Gust
km/h
Spd
kts
Gust
kts
17/06:30pm 21.1 11.7 -6.5 15 10.8 W 35 50 19 27 1009.3 1009.3 0.0
17/06:00pm 21.7 10.7 -6.9 14 11.2 W 43 57 23 31 1008.7 1008.7 0.0
17/05:30pm 22.6 11.1 -6.2 14 11.5 W 46 61 25 33 1008.3 1008.3 0.0
17/05:00pm 23.3 10.1 -4.8 15 11.7 WSW 56 78 30 42 1007.7 1007.7 0.0
17/04:30pm 23.2 12.0 -1.0 20 10.8 W 48 70 26 38 1007.0 1007.0 0.0
17/04:05pm 24.7 13.7 0.9 21 11.1 W 48 67 26 36 1006.6 1006.6 0.0
17/04:00pm 24.7 12.8 -0.4 19 11.5 WNW 52 69 28 37 1006.6 1006.6 0.0
17/03:30pm 25.3 13.1 0.0 19 11.7 W 54 70 29 38 1006.1 1006.1 0.0
17/03:00pm 26.0 13.5 0.6 19 11.9 W 56 76 30 41 1005.6 1005.6 0.0
17/02:30pm 27.6 16.9 2.6 20 12.3 W 48 59 26 32 1005.4 1005.4 0.0
17/02:04pm 27.4 17.3 0.2 17 12.8 W 43 61 23 33 1005.2 1005.2 0.0
17/02:00pm 28.0 18.5 3.7 21 12.2 W 43 54 23 29 1005.1 1005.1 0.0
17/01:30pm 28.4 20.4 4.0 21 12.4 WNW 35 52 19 28 1004.9 1004.9 0.0
17/01:08pm 28.8 20.1 4.3 21 12.5 WNW 39 61 21 33 1004.8 1004.8 0.0
17/01:00pm 28.7 23.9 5.5 23 12.1 WSW 20 41 11 22 1004.8 1004.8 0.0
17/12:30pm 25.4 22.7 11.6 42 7.8 SSE 17 22 9 12 1004.9 1004.9 0.0
17/12:00pm 26.7 24.0 9.1 33 9.7 S 13 26 7 14 1005.2 1005.2 0.0
17/11:30am 25.6 21.8 9.8 37 8.7 WSW 20 28 11 15 1005.5 1005.5 0.0
17/11:00am 25.5 24.1 10.9 40 8.2 WSW 9 15 5 8 1005.9 1005.9 0.0
17/10:30am 24.4 22.5 13.0 49 6.6 WSW 15 22 8 12 1006.3 1006.3 0.0
17/10:00am 23.0 21.1 14.3 58 5.1 W 17 30 9 16 1006.4 1006.4 0.0
17/09:30am 21.6 20.1 14.3 63 4.3 W 15 20 8 11 1006.6 1006.6 0.0
17/09:00am 21.6 21.0 15.7 69 3.5 WNW 13 19 7 10 1006.5 1006.5 0.0
17/08:30am 20.5 19.8 15.3 72 3.1 WNW 13 19 7 10 1006.7 1006.7 0.0
17/08:00am 20.4 19.9 15.0 71 3.2 WNW 11 15 6 8 1006.5 1006.5 0.0
17/07:30am 18.8 18.6 14.7 77 2.4 WNW 9 13 5 7 1006.5 1006.5 0.0
17/07:00am 18.6 18.8 14.7 78 2.3 NW 7 11 4 6 1006.3 1006.3 0.0
17/06:30am 17.9 18.7 15.9 88 1.2 W 6 9 3 5 1006.4 1006.4 0.0
17/06:00am 17.3 17.0 15.5 89 1.1 W 11 13 6 7 1006.6 1006.6 0.0
17/05:30am 17.6 18.1 15.6 88 1.2 WNW 7 11 4 6 1006.6 1006.6 0.0
17/05:00am 17.6 19.4 15.4 87 1.3 CALM 0 0 0 0 1006.3 1006.3 0.0
17/04:30am 18.0 18.7 16.0 88 1.2 SW 7 13 4 7 1007.3 1007.3 0.0
17/04:00am 18.0 16.9 16.3 90 1.0 S 17 22 9 12 1007.3 1007.3 0.0
17/03:30am 18.1 17.8 16.4 90 1.0 SSE 13 17 7 9 1007.6 1007.6 0.0
17/03:00am 18.2 17.2 16.7 91 0.9 SSE 17 26 9 14 1007.9 1007.9 0.0
17/02:30am 18.6 18.3 17.3 92 0.8 SSE 15 19 8 10 1008.2 1008.2 0.0
17/02:00am 18.7 18.3 17.2 91 0.9 SSE 15 19 8 10 1008.2 1008.2 0.0
17/01:30am 18.7 17.9 17.0 90 1.0 SSE 17 19 9 10 1009.4 1009.4 0.0
17/01:00am 19.1 19.1 17.2 89 1.2 SSW 13 17 7 9 1009.7 1009.7 0.0
17/12:30am 19.2 19.9 16.1 82 1.8 ENE 7 13 4 7 1009.7 1009.7 0.0
17/12:00am 19.4 19.4 15.3 77 2.4 ENE 9 11 5 6 1009.2 1009.2 0.0
 
Date/Time
EDT
Temp
°C
App
Temp
°C
Dew
Point
°C
Rel
Hum
%
Delta-T
°C
Wind Press
QNH
hPa
Press
MSL
hPa
Rain since
9am
mm
Dir  Spd
km/h
Gust
km/h
Spd
kts
Gust
kts
16/11:30pm 20.5 19.3 16.1 76 2.6 NE 17 20 9 11 1009.8 1009.8 0.0
16/11:00pm 20.0 18.7 15.8 77 2.5 ENE 17 20 9 11 1009.3 1009.3 0.0
16/10:30pm 20.4 18.4 16.4 78 2.4 NE 22 30 12 16 1009.3 1009.3 0.0
16/10:00pm 20.4 18.5 15.2 72 3.1 NE 19 24 10 13 1009.2 1009.2 0.0
16/09:30pm 23.4 21.6 7.9 37 8.2 NNW 7 11 4 6 1009.3 1009.3 0.0
16/09:00pm 23.6 21.0 9.2 40 7.8 NW 13 17 7 9 1009.5 1009.5 0.0
16/08:30pm 24.4 20.6 9.2 38 8.2 WNW 19 26 10 14 1009.4 1009.4 0.0
16/08:19pm 23.8 18.4 9.4 40 7.8 W 28 37 15 20 1010.1 1010.1 0.0
16/08:00pm 24.2 22.5 9.8 40 7.9 NW 9 13 5 7 1010.4 1010.4 0.0
16/07:30pm 24.9 22.8 8.4 35 8.8 NNW 9 13 5 7 1009.5 1009.5 0.0
16/07:00pm 25.2 22.7 8.2 34 9.1 NW 11 15 6 8 1008.9 1008.9 0.0
16/06:30pm 25.4 23.9 8.4 34 9.1 WNW 6 17 3 9 1008.2 1008.2 0.0
16/06:00pm 24.7 22.2 9.8 39 8.2 W 13 22 7 12 1008.2 1008.2 0.0
16/05:30pm 21.3 23.1 15.6 70 3.4 CALM 0 0 0 0 1008.9 1008.9 0.0
16/05:00pm 20.2 20.5 16.0 77 2.5 SSE 9 17 5 9 1009.4 1009.4 0.0
16/04:30pm 20.0 21.7 15.2 74 2.8 CALM 0 0 0 0 1009.6 1009.6 0.0
16/04:00pm 20.1 20.2 15.5 75 2.7 SE 9 13 5 7 1009.3 1009.3 0.0
16/03:30pm 19.8 19.0 15.2 75 2.7 SSE 13 17 7 9 1009.6 1009.6 0.0
16/03:00pm 19.9 17.8 14.7 72 3.0 ESE 19 22 10 12 1009.2 1009.2 0.0
16/02:30pm 20.2 19.0 15.0 72 3.1 ESE 15 19 8 10 1009.5 1009.5 0.0
16/02:00pm 19.6 18.9 15.3 76 2.5 SSE 13 17 7 9 1010.2 1010.2 0.0
16/01:30pm 20.6 18.8 14.5 68 3.6 SE 17 22 9 12 1010.2 1010.2 0.0
16/01:00pm 20.5 19.1 15.5 73 3.0 SSE 17 20 9 11 1010.2 1010.2 0.0
16/12:30pm 19.3 17.8 15.2 77 2.4 S 17 22 9 12 1011.1 1011.1 0.0
16/12:00pm 20.2 19.1 15.4 74 2.8 SSE 15 17 8 9 1011.4 1011.4 0.0
16/11:30am 20.3 18.9 15.5 74 2.8 SSE 17 20 9 11 1011.9 1011.9 0.0
16/11:00am 19.7 18.1 15.1 75 2.7 SSE 17 22 9 12 1012.4 1012.4 0.0
16/10:30am 19.6 17.7 15.3 76 2.5 SSE 19 24 10 13 1012.3 1012.3 0.0
16/10:00am 18.7 16.3 15.4 81 1.9 S 22 28 12 15 1012.6 1012.6 0.0
16/09:30am 18.3 15.1 15.4 83 1.7 S 26 32 14 17 1012.3 1012.3 0.0
16/09:00am 18.1 15.2 15.2 83 1.7 S 24 30 13 16 1012.8 1012.8 0.0
16/08:30am 18.0 15.6 15.4 85 1.5 S 22 30 12 16 1012.7 1012.7 0.0
16/08:00am 17.7 14.6 15.7 88 1.2 S 26 33 14 18 1012.6 1012.6 0.0
16/07:30am 17.7 14.4 16.0 90 1.0 S 28 33 15 18 1012.4 1012.4 0.0
16/07:00am 17.5 13.7 15.8 90 1.0 S 30 37 16 20 1012.1 1012.1 0.0
16/06:30am 17.6 13.5 15.9 90 1.0 S 32 43 17 23 1011.8 1011.8 0.0
16/06:00am 18.0 13.5 16.5 91 0.9 S 35 44 19 24 1011.7 1011.7 0.0
16/05:30am 18.0 14.2 16.7 92 0.8 S 32 41 17 22 1011.2 1011.2 0.0
16/05:00am 18.1 14.3 16.8 92 0.8 S 32 39 17 21 1011.1 1011.1 0.0
16/04:30am 18.3 15.8 17.0 92 0.8 SSW 26 33 14 18 1010.4 1010.4 0.0
16/04:00am 18.3 16.5 17.0 92 0.8 SSW 22 28 12 15 1010.6 1010.6 0.0
16/03:30am 18.2 18.9 17.0 93 0.7 SW 9 13 5 7 1010.1 1010.1 0.0
16/03:00am 18.5 20.9 17.0 91 0.9 CALM 0 0 0 0 1009.6 1009.6 0.0
16/02:30am 18.8 21.2 17.1 90 1.0 CALM 0 0 0 0 1009.7 1009.7 0.0
16/02:00am 19.0 19.8 17.3 90 1.0 NNW 9 11 5 6 1010.2 1010.2 0.0
16/01:30am 19.3 19.8 17.4 89 1.2 N 11 13 6 7 1010.6 1010.6 0.0
16/01:00am 19.6 20.9 17.6 88 1.2 N 7 11 4 6 1010.9 1010.9 0.0
16/12:30am 20.0 20.7 18.0 88 1.2 N 11 13 6 7 1011.2 1011.2 0.0
16/12:00am 20.0 19.5 17.8 87 1.4 NNE 17 20 9 11 1011.0 1011.0 0.0
 
Date/Time
EDT
Temp
°C
App
Temp
°C
Dew
Point
°C
Rel
Hum
%
Delta-T
°C
Wind Press
QNH
hPa
Press
MSL
hPa
Rain since
9am
mm
Dir  Spd
km/h
Gust
km/h
Spd
kts
Gust
kts
15/11:30pm 20.2 18.7 17.8 86 1.5 NNE 22 30 12 16 1010.9 1010.9 0.0
15/11:00pm 20.2 17.9 17.6 85 1.6 NE 26 32 14 17 1010.6 1010.6 0.0
15/10:30pm 21.0 18.8 17.8 82 2.0 NNE 26 33 14 18 1011.3 1011.3 0.0
15/10:00pm 20.9 18.6 17.7 82 2.0 NNE 26 35 14 19 1011.4 1011.4 0.0
15/09:30pm 21.0 18.3 17.6 81 2.1 NNE 28 41 15 22 1011.6 1011.6 0.0
15/09:00pm 21.0 17.9 17.6 81 2.1 NNE 30 41 16 22 1011.0 1011.0 0.0
15/08:30pm 21.6 19.9 18.2 81 2.1 NNE 24 37 13 20 1010.8 1010.8 0.0
15/08:00pm 20.8 17.7 17.4 81 2.1 NNE 30 43 16 23 1010.3 1010.3 0.0
15/07:30pm 21.3 18.0 17.9 81 2.1 NNE 32 46 17 25 1009.9 1009.9 0.0
15/07:00pm 21.6 18.7 18.0 80 2.2 NNE 30 39 16 21 1009.7 1009.7 0.0
15/06:45pm 21.8 19.0 18.2 80 2.2 NE 30 43 16 23 1009.5 1009.5 0.0
15/06:30pm 22.0 18.7 18.0 78 2.5 NE 32 39 17 21 1009.3 1009.3 0.0
15/06:00pm 22.4 19.0 17.8 75 2.9 NE 32 41 17 22 1009.3 1009.3 0.0
15/05:30pm 22.5 18.9 17.2 72 3.3 NE 32 41 17 22 1009.2 1009.2 0.0
15/05:00pm 22.4 18.3 16.4 69 3.6 NE 33 41 18 22 1009.1 1009.1 0.0
15/04:30pm 23.3 19.1 15.6 62 4.6 NE 32 41 17 22 1009.1 1009.1 0.0
15/04:00pm 23.8 19.5 15.3 59 5.1 NE 32 41 17 22 1009.3 1009.3 0.0
15/03:30pm 24.6 20.0 14.7 54 5.9 NE 32 39 17 21 1009.4 1009.4 0.0
15/03:00pm 25.1 21.4 15.1 53 6.0 NE 28 35 15 19 1009.7 1009.7 0.0
15/02:30pm 25.5 21.2 14.3 50 6.7 NE 30 37 16 20 1010.3 1010.3 0.0
15/02:00pm 25.0 21.4 12.9 47 7.0 NE 24 33 13 18 1010.9 1010.9 0.0
15/01:30pm 24.9 20.5 11.8 44 7.4 NE 26 32 14 17 1011.3 1011.3 0.0
15/01:00pm 24.0 20.3 12.6 49 6.5 ENE 24 32 13 17 1011.5 1011.5 0.0
15/12:30pm 23.6 20.3 12.9 51 6.2 ENE 22 26 12 14 1011.7 1011.7 0.0
15/12:00pm 23.9 20.5 12.5 49 6.5 E 22 28 12 15 1012.0 1012.0 0.0
15/11:30am 20.9 20.3 15.7 72 3.1 SE 13 20 7 11 1012.4 1012.4 0.0
15/11:00am 21.5 20.7 15.1 67 3.8 SSE 13 17 7 9 1012.9 1012.9 0.0
15/10:30am 22.3 23.0 13.4 57 5.1 NE 2 9 1 5 1013.1 1013.1 0.0
15/10:00am 22.3 22.4 14.4 61 4.6 W 7 13 4 7 1013.5 1013.5 0.0
15/09:30am 21.0 21.2 14.6 67 3.7 W 7 11 4 6 1013.6 1013.6 0.0
15/09:00am 19.2 19.2 14.2 73 2.9 WNW 7 11 4 6 1013.6 1013.6 0.0
15/08:30am 17.9 17.4 13.8 77 2.3 WNW 9 13 5 7 1013.6 1013.6 0.0
15/08:00am 18.0 18.1 14.5 80 2.0 WNW 7 9 4 5 1013.7 1013.7 0.0
15/07:30am 16.4 15.9 13.7 84 1.5 WNW 9 11 5 6 1013.5 1013.5 0.0
15/07:00am 16.2 15.4 14.0 87 1.2 WNW 11 15 6 8 1013.4 1013.4 0.0
15/06:30am 16.2 16.2 14.2 88 1.1 NW 7 11 4 6 1013.1 1013.1 0.0
15/06:00am 16.3 17.8 14.7 90 0.9 CALM 0 0 0 0 1013.0 1013.0 0.0
15/05:30am 16.3 17.9 14.8 91 0.9 CALM 0 0 0 0 1012.8 1012.8 0.0
15/05:00am 15.6 16.9 14.1 91 0.8 CALM 0 0 0 0 1012.7 1012.7 0.0
15/04:30am 15.3 16.5 13.7 90 0.9 CALM 0 0 0 0 1012.7 1012.7 0.0
15/04:00am 15.2 16.2 13.2 88 1.1 CALM 0 0 0 0 1012.8 1012.8 0.0
15/03:30am 15.8 16.9 13.6 87 1.2 CALM 0 0 0 0 1013.0 1013.0 0.0
15/03:00am 16.2 17.4 13.9 86 1.3 CALM 0 0 0 0 1013.2 1013.2 0.0
15/02:30am 16.4 17.6 13.9 85 1.4 CALM 0 0 0 0 1013.4 1013.4 0.0
15/02:00am 16.4 17.7 14.1 86 1.3 CALM 0 0 0 0 1013.8 1013.8 0.0
15/01:30am 16.6 17.9 14.1 85 1.4 CALM 0 0 0 0 1013.9 1013.9 0.0
15/01:00am 16.9 16.8 14.0 83 1.6 SW 7 11 4 6 1014.0 1014.0 0.0
15/12:30am 17.6 18.8 13.9 79 2.1 CALM 0 0 0 0 1014.2 1014.2 0.0
15/12:00am 18.7 18.0 14.4 76 2.5 N 11 15 6 8 1014.4 1014.4 0.0
 
Date/Time
EDT
Temp
°C
App
Temp
°C
Dew
Point
°C
Rel
Hum
%
Delta-T
°C
Wind Press
QNH
hPa
Press
MSL
hPa
Rain since
9am
mm
Dir  Spd
km/h
Gust
km/h
Spd
kts
Gust
kts
14/11:30pm 19.0 18.0 14.5 75 2.6 NNE 13 17 7 9 1014.6 1014.6 0.0
14/11:00pm 19.2 17.9 14.7 75 2.6 N 15 19 8 10 1014.5 1014.5 0.0
14/10:30pm 19.3 16.9 14.3 73 2.9 NNE 20 26 11 14 1014.5 1014.5 0.0
14/10:00pm 19.3 17.6 14.6 74 2.7 NNE 17 24 9 13 1014.6 1014.6 0.0
14/09:30pm 19.2 16.7 15.1 77 2.4 NNE 22 30 12 16 1014.7 1014.7 0.0
14/09:00pm 19.3 17.1 14.8 75 2.6 NNE 20 30 11 16 1014.6 1014.6 0.0
14/08:30pm 19.4 16.6 14.4 73 2.9 NE 22 30 12 16 1014.2 1014.2 0.0
14/08:00pm 19.0 16.5 14.1 73 2.8 NE 20 28 11 15 1013.8 1013.8 0.0
14/07:30pm 19.2 16.1 13.4 69 3.3 NE 22 30 12 16 1013.5 1013.5 0.0
14/07:00pm 19.3 15.0 13.3 68 3.4 NE 28 35 15 19 1013.4 1013.4 0.0

Latest Capital City Observations: Canberra | Sydney | Melbourne | Brisbane | Adelaide | Perth | Hobart | Darwin

Other formats

Comma delimited format used in spreadsheet applications
http://www.bom.gov.au/fwo/IDN60901/IDN60901.94767.axf

JavaScript Object Notation format (JSON) in row-major order
http://www.bom.gov.au/fwo/IDN60901/IDN60901.94767.json

Data quality

Most of these data are generated automatically and are frequently updated. Quality checks on data are not normally performed. It is possible for incorrect values to appear. Refer to information at About Latest Weather Observations and please check the disclaimer before using these data.